Terminal Aerodrome Forecast
Issued by NWS

Home | Current Version | Previous Version | Text Only | Print | Product List | Glossary On
Versions: 1 2 3 4 5 6 7 8 9 10 11 12 13 14 15 16 17
000
FTUS41 KCAR 251136
TAFBHB
TAF
KBHB 251136Z 2512/2612 03006KT P6SM BKN200
     FM251500 13008KT P6SM VCSH OVC023
     FM251700 14012KT 1SM -SN OVC015
     FM252000 14013G23KT 1SM -RA OVC013
     FM260000 14013KT 2SM -RA BR OVC007
     FM260200 13010KT 2SM -DZ BR OVC005=

USA.gov is the U.S. government's official web portal to all federal, state and local government web resources and services.